RPC9307 RPVM-RPVE
Flight info
| Callsign | RPC9307 |
|---|---|
| Flight time | N/A |
| Altitude | 16000 |
| Route | KEVAN4N KEVAN TR2 BCD TR8 KLO KLO7A |
| Aircraft | B58T/L-SDFGRY/C |
Departure
| Time | 2026-04-30 11:00 |
|---|---|
| Airport | Mactan Cebu International Airport (RPVM) |
Arrival
| Time | N/A |
|---|---|
| Airport | Godofredo P. Ramos Airport (RPVE) |
| Time | Latitude | Longitude | Altitude | Speed | Heading |
|---|---|---|---|---|---|
| 2026-04-30 09:44 | 10.30124 | 123.97619 | 32 ft | 0 kts | 302° |
| 2026-04-30 10:58 | 10.30129 | 123.97609 | 32 ft | 5 kts | 293° |
| 2026-04-30 10:58 | 10.30105 | 123.97564 | 32 ft | 11 kts | 227° |
| 2026-04-30 10:58 | 10.30043 | 123.97490 | 32 ft | 10 kts | 242° |
| 2026-04-30 10:58 | 10.30079 | 123.97433 | 31 ft | 14 kts | 315° |
| 2026-04-30 10:59 | 10.30150 | 123.97371 | 29 ft | 9 kts | 342° |
| 2026-04-30 10:59 | 10.30267 | 123.97454 | 31 ft | 40 kts | 45° |
| 2026-04-30 10:59 | 10.30625 | 123.97814 | 34 ft | 100 kts | 44° |
| 2026-04-30 10:59 | 10.31189 | 123.98370 | 160 ft | 123 kts | 43° |
| 2026-04-30 11:00 | 10.31850 | 123.99009 | 269 ft | 137 kts | 46° |
| 2026-04-30 11:00 | 10.32500 | 123.99735 | 484 ft | 141 kts | 49° |
| 2026-04-30 11:00 | 10.33104 | 124.00504 | 764 ft | 138 kts | 52° |
| 2026-04-30 11:00 | 10.33750 | 124.01212 | 1000 ft | 138 kts | 44° |
| 2026-04-30 11:01 | 10.34513 | 124.01865 | 1121 ft | 145 kts | 41° |
| 2026-04-30 11:01 | 10.35241 | 124.02533 | 1411 ft | 141 kts | 46° |
| 2026-04-30 11:01 | 10.35964 | 124.03240 | 1566 ft | 150 kts | 45° |
| 2026-04-30 11:01 | 10.36700 | 124.03974 | 1789 ft | 149 kts | 47° |
| 2026-04-30 11:02 | 10.37422 | 124.04727 | 2030 ft | 149 kts | 47° |
| 2026-04-30 11:02 | 10.38155 | 124.05479 | 2243 ft | 150 kts | 47° |
| 2026-04-30 11:02 | 10.38642 | 124.05977 | 2398 ft | 149 kts | 46° |
| 2026-04-30 11:02 | 10.39623 | 124.06977 | 2681 ft | 150 kts | 46° |
| 2026-04-30 11:03 | 10.40368 | 124.07734 | 2895 ft | 151 kts | 47° |
| 2026-04-30 11:03 | 10.41117 | 124.08499 | 3040 ft | 158 kts | 47° |
| 2026-04-30 11:03 | 10.41914 | 124.09313 | 3077 ft | 166 kts | 45° |
| 2026-04-30 11:04 | 10.44134 | 124.09400 | 3148 ft | 186 kts | 322° |
| 2026-04-30 11:04 | 10.44652 | 124.08698 | 3176 ft | 191 kts | 296° |
| 2026-04-30 11:04 | 10.45123 | 124.07433 | 3259 ft | 190 kts | 297° |
| 2026-04-30 11:04 | 10.45798 | 124.06280 | 3322 ft | 190 kts | 307° |
| 2026-04-30 11:05 | 10.46559 | 124.05183 | 3384 ft | 190 kts | 307° |
| 2026-04-30 11:05 | 10.47306 | 124.04090 | 3458 ft | 190 kts | 307° |
| 2026-04-30 11:05 | 10.48054 | 124.02978 | 3536 ft | 190 kts | 307° |
| 2026-04-30 11:05 | 10.48798 | 124.01871 | 3645 ft | 188 kts | 307° |
| 2026-04-30 11:06 | 10.49546 | 124.00760 | 3686 ft | 191 kts | 307° |
| 2026-04-30 11:06 | 10.50288 | 123.99653 | 3793 ft | 190 kts | 307° |
| 2026-04-30 11:06 | 10.50994 | 123.98598 | 4140 ft | 178 kts | 307° |
| 2026-04-30 11:06 | 10.51689 | 123.97503 | 4274 ft | 174 kts | 304° |
| 2026-04-30 11:07 | 10.52247 | 123.96503 | 4890 ft | 150 kts | 301° |
| 2026-04-30 11:07 | 10.52828 | 123.95609 | 5127 ft | 153 kts | 314° |
| 2026-04-30 11:07 | 10.53502 | 123.94773 | 5394 ft | 153 kts | 312° |
| 2026-04-30 11:07 | 10.54114 | 123.93937 | 5778 ft | 146 kts | 310° |
| 2026-04-30 11:08 | 10.54701 | 123.93100 | 6099 ft | 144 kts | 308° |
| 2026-04-30 11:08 | 10.55266 | 123.92243 | 6411 ft | 145 kts | 309° |
| 2026-04-30 11:08 | 10.55839 | 123.91397 | 6703 ft | 146 kts | 309° |
| 2026-04-30 11:08 | 10.56417 | 123.90544 | 6975 ft | 147 kts | 309° |
| 2026-04-30 11:09 | 10.56975 | 123.89711 | 7367 ft | 138 kts | 308° |
| 2026-04-30 11:09 | 10.57513 | 123.88911 | 7694 ft | 138 kts | 309° |
| 2026-04-30 11:09 | 10.58054 | 123.88107 | 8014 ft | 138 kts | 309° |
| 2026-04-30 11:09 | 10.58596 | 123.87302 | 8307 ft | 138 kts | 310° |
| 2026-04-30 11:10 | 10.59094 | 123.86459 | 8631 ft | 142 kts | 290° |
| 2026-04-30 11:10 | 10.59236 | 123.85455 | 8923 ft | 145 kts | 281° |
| 2026-04-30 11:10 | 10.59383 | 123.84438 | 9191 ft | 145 kts | 281° |
| 2026-04-30 11:10 | 10.59523 | 123.83433 | 9511 ft | 145 kts | 280° |
| 2026-04-30 11:11 | 10.59661 | 123.82414 | 9783 ft | 146 kts | 281° |
| 2026-04-30 11:11 | 10.59801 | 123.81384 | 10054 ft | 148 kts | 281° |
| 2026-04-30 11:11 | 10.59942 | 123.80345 | 10338 ft | 148 kts | 281° |
| 2026-04-30 11:11 | 10.60084 | 123.79301 | 10626 ft | 149 kts | 281° |
| 2026-04-30 11:12 | 10.60226 | 123.78255 | 10906 ft | 150 kts | 281° |
| 2026-04-30 11:12 | 10.60370 | 123.77199 | 11193 ft | 151 kts | 281° |
| 2026-04-30 11:12 | 10.60514 | 123.76140 | 11461 ft | 152 kts | 281° |
| 2026-04-30 11:12 | 10.60657 | 123.75091 | 11746 ft | 152 kts | 281° |
| 2026-04-30 11:13 | 10.60802 | 123.74021 | 12019 ft | 153 kts | 281° |
| 2026-04-30 11:13 | 10.60949 | 123.72943 | 12292 ft | 154 kts | 281° |
| 2026-04-30 11:13 | 10.61093 | 123.71861 | 12563 ft | 155 kts | 281° |
| 2026-04-30 11:13 | 10.61243 | 123.70773 | 12839 ft | 155 kts | 281° |
| 2026-04-30 11:14 | 10.61393 | 123.69679 | 13107 ft | 157 kts | 281° |
| 2026-04-30 11:14 | 10.61543 | 123.68579 | 13378 ft | 158 kts | 281° |
| 2026-04-30 11:14 | 10.61693 | 123.67472 | 13655 ft | 158 kts | 281° |
| 2026-04-30 11:14 | 10.61843 | 123.66361 | 13901 ft | 159 kts | 281° |
| 2026-04-30 11:15 | 10.61995 | 123.65245 | 14146 ft | 159 kts | 281° |
| 2026-04-30 11:15 | 10.62147 | 123.64122 | 14384 ft | 160 kts | 281° |
| 2026-04-30 11:15 | 10.62300 | 123.62999 | 14630 ft | 161 kts | 280° |
| 2026-04-30 11:15 | 10.62452 | 123.61873 | 14872 ft | 161 kts | 280° |
| 2026-04-30 11:16 | 10.62604 | 123.60756 | 15111 ft | 162 kts | 280° |
| 2026-04-30 11:16 | 10.62758 | 123.59621 | 15351 ft | 163 kts | 280° |
| 2026-04-30 11:16 | 10.62912 | 123.58481 | 15597 ft | 163 kts | 280° |
| 2026-04-30 11:16 | 10.63067 | 123.57335 | 15841 ft | 163 kts | 280° |
| 2026-04-30 11:17 | 10.63229 | 123.56154 | 15930 ft | 176 kts | 280° |
| 2026-04-30 11:17 | 10.63405 | 123.54865 | 15939 ft | 190 kts | 279° |
| 2026-04-30 11:17 | 10.63589 | 123.53499 | 15940 ft | 199 kts | 279° |
| 2026-04-30 11:17 | 10.63781 | 123.52082 | 15939 ft | 205 kts | 279° |
| 2026-04-30 11:18 | 10.63978 | 123.50625 | 15939 ft | 210 kts | 279° |
| 2026-04-30 11:18 | 10.64382 | 123.47641 | 15942 ft | 217 kts | 279° |
| 2026-04-30 11:18 | 10.64588 | 123.46106 | 15937 ft | 220 kts | 279° |
| 2026-04-30 11:19 | 10.64796 | 123.44559 | 15943 ft | 222 kts | 279° |
| 2026-04-30 11:19 | 10.65007 | 123.42997 | 15940 ft | 223 kts | 279° |
| 2026-04-30 11:19 | 10.65219 | 123.41433 | 15942 ft | 224 kts | 279° |
| 2026-04-30 11:19 | 10.65432 | 123.39860 | 15942 ft | 225 kts | 279° |
| 2026-04-30 11:20 | 10.65644 | 123.38282 | 15940 ft | 226 kts | 279° |
| 2026-04-30 11:20 | 10.65858 | 123.36696 | 15944 ft | 226 kts | 279° |
| 2026-04-30 11:20 | 10.66072 | 123.35108 | 15945 ft | 227 kts | 279° |
| 2026-04-30 11:20 | 10.66286 | 123.33520 | 15944 ft | 227 kts | 279° |
| 2026-04-30 11:21 | 10.66499 | 123.31930 | 15941 ft | 227 kts | 279° |
| 2026-04-30 11:21 | 10.66712 | 123.30359 | 15942 ft | 227 kts | 279° |
| 2026-04-30 11:21 | 10.66926 | 123.28769 | 15943 ft | 228 kts | 279° |
| 2026-04-30 11:21 | 10.67141 | 123.27171 | 15941 ft | 228 kts | 279° |
| 2026-04-30 11:22 | 10.67355 | 123.25577 | 15939 ft | 228 kts | 279° |
| 2026-04-30 11:22 | 10.67570 | 123.23975 | 15930 ft | 229 kts | 279° |
| 2026-04-30 11:22 | 10.67875 | 123.22396 | 15934 ft | 226 kts | 292° |
| 2026-04-30 11:22 | 10.68546 | 123.20961 | 15939 ft | 225 kts | 299° |
| 2026-04-30 11:23 | 10.69230 | 123.19526 | 15936 ft | 224 kts | 298° |
| 2026-04-30 11:23 | 10.69906 | 123.18091 | 15941 ft | 225 kts | 298° |
| 2026-04-30 11:23 | 10.71257 | 123.15252 | 15939 ft | 225 kts | 298° |
| 2026-04-30 11:24 | 10.71939 | 123.13818 | 15941 ft | 225 kts | 298° |
| 2026-04-30 11:24 | 10.72619 | 123.12386 | 15938 ft | 225 kts | 298° |
| 2026-04-30 11:24 | 10.73299 | 123.10956 | 15940 ft | 225 kts | 298° |
| 2026-04-30 11:25 | 10.74660 | 123.08092 | 15938 ft | 225 kts | 298° |
| 2026-04-30 11:25 | 10.75340 | 123.06661 | 15937 ft | 224 kts | 298° |
| 2026-04-30 11:25 | 10.76698 | 123.03801 | 15934 ft | 224 kts | 298° |
| 2026-04-30 11:26 | 10.78523 | 123.01351 | 15934 ft | 218 kts | 328° |
| 2026-04-30 11:26 | 10.79777 | 123.00484 | 15939 ft | 218 kts | 329° |
| 2026-04-30 11:26 | 10.81023 | 122.99612 | 15939 ft | 218 kts | 329° |
| 2026-04-30 11:27 | 10.82271 | 122.98737 | 15941 ft | 218 kts | 329° |
| 2026-04-30 11:27 | 10.83522 | 122.97863 | 15943 ft | 218 kts | 329° |
| 2026-04-30 11:27 | 10.84770 | 122.96991 | 15940 ft | 218 kts | 329° |
| 2026-04-30 11:27 | 10.86021 | 122.96116 | 15941 ft | 218 kts | 329° |
| 2026-04-30 11:28 | 10.88524 | 122.94365 | 15941 ft | 218 kts | 329° |
| 2026-04-30 11:28 | 10.89777 | 122.93489 | 15940 ft | 218 kts | 329° |
| 2026-04-30 11:28 | 10.91013 | 122.92624 | 15940 ft | 218 kts | 329° |
| 2026-04-30 11:29 | 10.92263 | 122.91750 | 15940 ft | 218 kts | 329° |
| 2026-04-30 11:29 | 10.93511 | 122.90876 | 15943 ft | 218 kts | 329° |
| 2026-04-30 11:29 | 10.96007 | 122.89130 | 15939 ft | 218 kts | 329° |
| 2026-04-30 11:30 | 10.98507 | 122.87379 | 15940 ft | 218 kts | 329° |
| 2026-04-30 11:30 | 10.99753 | 122.86507 | 15939 ft | 218 kts | 329° |
| 2026-04-30 11:30 | 11.01005 | 122.85630 | 15940 ft | 218 kts | 329° |
| 2026-04-30 11:31 | 11.02239 | 122.84766 | 15942 ft | 218 kts | 329° |
| 2026-04-30 11:31 | 11.03489 | 122.83891 | 15948 ft | 218 kts | 329° |
| 2026-04-30 11:31 | 11.04739 | 122.83015 | 15946 ft | 218 kts | 329° |
| 2026-04-30 11:31 | 11.05992 | 122.82137 | 15947 ft | 218 kts | 329° |
| 2026-04-30 11:32 | 11.07240 | 122.81263 | 15940 ft | 218 kts | 329° |
| 2026-04-30 11:32 | 11.08493 | 122.80385 | 15941 ft | 218 kts | 329° |
| 2026-04-30 11:32 | 11.09743 | 122.79509 | 15940 ft | 218 kts | 329° |
| 2026-04-30 11:33 | 11.12242 | 122.77759 | 15938 ft | 218 kts | 329° |
| 2026-04-30 11:33 | 11.13492 | 122.76881 | 15942 ft | 218 kts | 329° |
| 2026-04-30 11:33 | 11.14745 | 122.76003 | 15940 ft | 219 kts | 329° |
| 2026-04-30 11:33 | 11.15998 | 122.75125 | 15942 ft | 219 kts | 329° |
| 2026-04-30 11:34 | 11.17254 | 122.74244 | 15943 ft | 219 kts | 329° |
| 2026-04-30 11:34 | 11.18493 | 122.73376 | 15945 ft | 219 kts | 329° |
| 2026-04-30 11:34 | 11.19750 | 122.72494 | 15943 ft | 219 kts | 329° |
| 2026-04-30 11:34 | 11.21007 | 122.71613 | 15944 ft | 219 kts | 329° |
| 2026-04-30 11:35 | 11.22268 | 122.70729 | 15941 ft | 220 kts | 329° |
| 2026-04-30 11:35 | 11.23524 | 122.69847 | 15942 ft | 220 kts | 329° |
| 2026-04-30 11:35 | 11.24781 | 122.68965 | 15944 ft | 219 kts | 329° |
| 2026-04-30 11:35 | 11.26042 | 122.68080 | 15941 ft | 219 kts | 329° |
| 2026-04-30 11:36 | 11.27298 | 122.67198 | 15939 ft | 219 kts | 329° |
| 2026-04-30 11:36 | 11.28560 | 122.66313 | 15941 ft | 219 kts | 329° |
| 2026-04-30 11:36 | 11.29815 | 122.65432 | 15940 ft | 219 kts | 329° |
| 2026-04-30 11:36 | 11.31068 | 122.64553 | 15938 ft | 219 kts | 329° |
| 2026-04-30 11:37 | 11.32322 | 122.63672 | 15939 ft | 219 kts | 329° |
| 2026-04-30 11:37 | 11.33577 | 122.62791 | 15899 ft | 221 kts | 329° |
| 2026-04-30 11:37 | 11.34858 | 122.61891 | 15690 ft | 226 kts | 328° |